Ext Las Mercedes, Puerto Rico
Current Conditions -  °F | °C
As of 9:53 PM on Friday 28 Nov 2014 (Local Time) from TJNR Reporting Station
Scattered Clouds Scattered Clouds  
Wind Chill: 76°   Ceiling: Unl
Heat Index: 76°   Visibility: 10mi
Dew Point: 71°   Wind: 3mph
Humidity: 85%   Direction: 350°N
Pressure: 30"   Gusts: NA
Location:  18.1853°N, 65.8667°W
Report Text: TJNR 290153Z AUTO 35003KT 10SM SCT060 24/22 A3000 RMK AO2 SLP158 T02440217 $
Loading
Personal Weather Stations






























Interactive Weather Map New forecast layout! Learn more

10-Day Weather Forecast

Advertisements
Track Severe Weather on mobile